createdAt,value
2023-05-03T00:00:44.529Z,10.56
2023-05-03T00:03:13.725Z,10.52
2023-05-03T00:05:44.426Z,10.43
2023-05-03T00:08:18.178Z,10.51
2023-05-03T00:10:47.153Z,10.32
2023-05-03T00:13:15.599Z,10.43
2023-05-03T00:15:50.766Z,10.41
2023-05-03T00:18:19.905Z,10.35
2023-05-03T00:20:50.320Z,10.34
2023-05-03T00:23:22.524Z,10.40
2023-05-03T00:25:53.878Z,10.37
2023-05-03T00:28:28.271Z,10.27
2023-05-03T00:30:57.310Z,10.19
2023-05-03T00:33:31.492Z,10.19
2023-05-03T00:36:03.024Z,10.19
2023-05-03T00:38:40.793Z,10.23
2023-05-03T00:41:14.653Z,10.21
2023-05-03T00:43:44.918Z,10.15
2023-05-03T00:46:18.086Z,9.93
2023-05-03T00:48:49.694Z,9.96
2023-05-03T00:51:20.172Z,10.05
2023-05-03T00:53:52.423Z,10.05
2023-05-03T00:56:22.922Z,10.04
2023-05-03T00:58:55.689Z,10.00
2023-05-03T01:01:26.466Z,9.89
2023-05-03T01:03:55.656Z,9.84
2023-05-03T01:06:34.519Z,9.84
2023-05-03T01:09:12.669Z,9.79
2023-05-03T01:11:48.793Z,9.71
2023-05-03T01:14:33.825Z,9.60
2023-05-03T01:17:11.191Z,9.74
2023-05-03T01:19:45.686Z,9.77
2023-05-03T01:22:22.864Z,9.73
2023-05-03T01:25:01.571Z,9.69
2023-05-03T01:27:31.017Z,9.66
2023-05-03T01:29:59.641Z,9.66
2023-05-03T01:32:38.034Z,9.61
2023-05-03T01:35:13.570Z,9.68
2023-05-03T01:37:43.419Z,9.61
2023-05-03T01:40:19.497Z,9.59
2023-05-03T01:42:48.941Z,9.54
2023-05-03T01:45:19.389Z,9.57
2023-05-03T01:47:48.990Z,9.57
2023-05-03T01:50:17.788Z,9.58
2023-05-03T01:52:46.729Z,9.60
2023-05-03T01:55:19.258Z,9.56
2023-05-03T01:57:48.769Z,9.56
2023-05-03T02:00:17.404Z,9.57
2023-05-03T02:02:45.819Z,9.54
2023-05-03T02:05:14.455Z,9.51
2023-05-03T02:07:42.824Z,9.48
2023-05-03T02:10:15.078Z,9.52
2023-05-03T02:12:45.771Z,9.40
2023-05-03T02:15:16.025Z,9.33
2023-05-03T02:17:46.115Z,9.28
2023-05-03T02:20:14.551Z,9.29
2023-05-03T02:22:43.934Z,9.34
2023-05-03T02:25:12.826Z,9.45
2023-05-03T02:27:41.385Z,9.42
2023-05-03T02:30:12.247Z,9.52
2023-05-03T02:32:44.625Z,9.45
2023-05-03T02:35:13.114Z,9.34
2023-05-03T02:37:42.042Z,9.39
2023-05-03T02:40:13.947Z,9.26
2023-05-03T02:42:45.540Z,9.07
2023-05-03T02:45:18.226Z,9.20
2023-05-03T02:47:48.144Z,9.11
2023-05-03T02:50:17.290Z,9.24
2023-05-03T02:52:46.773Z,9.10
2023-05-03T02:55:15.645Z,9.08
2023-05-03T02:57:47.466Z,9.04
2023-05-03T03:00:21.608Z,9.00
2023-05-03T03:02:51.371Z,8.89
2023-05-03T03:05:20.072Z,8.92
2023-05-03T03:07:52.654Z,9.16
2023-05-03T03:10:21.196Z,9.17
2023-05-03T03:12:50.435Z,9.28
2023-05-03T03:15:34.450Z,9.24
2023-05-03T03:18:02.985Z,9.18
2023-05-03T03:20:33.203Z,9.28
2023-05-03T03:23:01.639Z,9.29
2023-05-03T03:25:31.109Z,9.32
2023-05-03T03:28:00.798Z,9.25
2023-05-03T03:30:32.204Z,9.28
2023-05-03T03:33:12.386Z,9.22
2023-05-03T03:35:42.976Z,9.23
2023-05-03T03:38:13.254Z,9.22
2023-05-03T03:40:49.928Z,9.17
2023-05-03T03:43:19.023Z,9.17
2023-05-03T03:45:48.407Z,9.13
2023-05-03T03:48:19.740Z,9.17
2023-05-03T03:50:50.218Z,9.17
2023-05-03T03:53:20.697Z,9.18
2023-05-03T03:55:50.355Z,9.11
2023-05-03T03:58:19.753Z,9.10
2023-05-03T04:00:48.922Z,9.11
2023-05-03T04:03:22.223Z,9.12
2023-05-03T04:05:51.584Z,9.10
2023-05-03T04:08:22.401Z,9.09
2023-05-03T04:10:51.698Z,9.06
2023-05-03T04:13:20.944Z,9.07
2023-05-03T04:15:55.763Z,9.09
2023-05-03T04:18:26.843Z,9.09
2023-05-03T04:20:58.223Z,9.04
2023-05-03T04:23:27.788Z,9.09
2023-05-03T04:25:57.812Z,9.11
2023-05-03T04:28:28.027Z,9.10
2023-05-03T04:30:59.072Z,9.11
2023-05-03T04:33:31.436Z,9.09
2023-05-03T04:36:05.080Z,9.06
2023-05-03T04:38:35.267Z,9.07
2023-05-03T04:41:07.093Z,9.08
2023-05-03T04:43:35.775Z,9.13
2023-05-03T04:46:05.369Z,9.13
2023-05-03T04:48:35.919Z,9.12
2023-05-03T04:51:06.093Z,9.08
2023-05-03T04:53:34.695Z,9.08
2023-05-03T04:56:09.786Z,9.13
2023-05-03T04:58:40.751Z,9.17
2023-05-03T05:01:09.538Z,9.16
2023-05-03T05:03:40.695Z,9.25
2023-05-03T05:06:15.400Z,9.30
2023-05-03T05:08:44.902Z,9.33
2023-05-03T05:11:16.012Z,9.35
2023-05-03T05:13:45.261Z,9.32
2023-05-03T05:16:14.141Z,9.42
2023-05-03T05:18:48.586Z,9.45
2023-05-03T05:21:18.256Z,9.44
2023-05-03T05:23:47.623Z,9.50
2023-05-03T05:26:16.353Z,9.57
2023-05-03T05:28:45.652Z,9.58
2023-05-03T05:31:14.641Z,9.62
2023-05-03T05:33:44.562Z,9.68
2023-05-03T05:36:15.425Z,9.72
2023-05-03T05:38:44.719Z,9.78
2023-05-03T05:41:13.158Z,9.85
2023-05-03T05:43:44.067Z,9.91
2023-05-03T05:46:12.535Z,9.97
2023-05-03T05:48:43.435Z,10.02
2023-05-03T05:51:12.736Z,10.09
2023-05-03T05:53:43.368Z,10.15
2023-05-03T05:56:12.398Z,10.18
2023-05-03T05:58:41.672Z,10.23
2023-05-03T06:01:10.750Z,10.21
2023-05-03T06:03:40.756Z,10.27
2023-05-03T06:06:10.406Z,10.25
2023-05-03T06:08:40.366Z,10.31
2023-05-03T06:11:10.137Z,10.71
2023-05-03T06:13:41.266Z,10.62
2023-05-03T06:16:12.563Z,10.67
2023-05-03T06:18:40.988Z,10.46
2023-05-03T06:21:11.780Z,10.61
2023-05-03T06:23:40.684Z,10.66
2023-05-03T06:26:12.193Z,10.66
2023-05-03T06:28:41.094Z,10.75
2023-05-03T06:31:09.931Z,10.77
2023-05-03T06:33:38.845Z,10.83
2023-05-03T06:36:09.742Z,10.86
2023-05-03T06:38:39.086Z,10.92
2023-05-03T06:41:08.224Z,10.81
2023-05-03T06:43:38.013Z,11.00
2023-05-03T06:46:08.367Z,11.07
2023-05-03T06:48:37.101Z,11.11
2023-05-03T06:51:06.501Z,11.14
2023-05-03T06:53:35.724Z,11.23
2023-05-03T06:56:05.394Z,11.34
2023-05-03T06:58:35.600Z,11.40
2023-05-03T07:01:05.382Z,11.50
2023-05-03T07:03:34.340Z,11.60
2023-05-03T07:06:03.000Z,11.66
2023-05-03T07:08:31.359Z,11.74
2023-05-03T07:11:00.824Z,11.81
2023-05-03T07:13:29.609Z,11.87
2023-05-03T07:15:58.423Z,11.83
2023-05-03T07:18:28.810Z,11.92
2023-05-03T07:20:57.289Z,12.06
2023-05-03T07:23:26.805Z,12.20
2023-05-03T07:25:56.053Z,12.28
2023-05-03T07:28:25.132Z,12.37
2023-05-03T07:30:53.791Z,12.51
2023-05-03T07:33:22.900Z,12.67
2023-05-03T07:35:52.726Z,12.72
2023-05-03T07:38:21.834Z,12.78
2023-05-03T07:40:50.399Z,12.87
2023-05-03T07:43:24.184Z,12.90
2023-05-03T07:45:52.577Z,12.99
2023-05-03T07:48:21.853Z,13.04
2023-05-03T07:50:50.235Z,13.16
2023-05-03T07:53:19.924Z,13.18
2023-05-03T07:55:48.293Z,13.24
2023-05-03T07:58:19.601Z,13.37
2023-05-03T08:00:49.796Z,13.44
2023-05-03T08:03:18.733Z,13.48
2023-05-03T08:05:48.595Z,13.40
2023-05-03T08:08:17.312Z,13.34
2023-05-03T08:10:47.744Z,13.37
2023-05-03T08:13:17.216Z,13.56
2023-05-03T08:15:46.034Z,13.72
2023-05-03T08:18:15.004Z,13.83
2023-05-03T08:20:43.858Z,13.87
2023-05-03T08:23:12.279Z,14.02
2023-05-03T08:25:41.104Z,14.34
2023-05-03T08:28:10.861Z,14.45
2023-05-03T08:30:40.098Z,14.55
2023-05-03T08:33:09.915Z,14.49
2023-05-03T08:35:38.771Z,14.37
2023-05-03T08:38:07.508Z,14.49
2023-05-03T08:40:40.371Z,14.63
2023-05-03T08:43:11.523Z,14.77
2023-05-03T08:45:39.930Z,14.83
2023-05-03T08:48:08.569Z,14.56
2023-05-03T08:50:42.318Z,14.91
2023-05-03T08:53:11.753Z,15.18
2023-05-03T08:55:40.372Z,15.52
2023-05-03T08:58:12.809Z,15.67
2023-05-03T09:00:45.013Z,15.80
2023-05-03T09:03:14.487Z,15.87
2023-05-03T09:05:44.321Z,15.92
2023-05-03T09:08:14.564Z,15.99
2023-05-03T09:10:43.816Z,15.72
2023-05-03T09:13:13.516Z,15.96
2023-05-03T09:15:45.293Z,16.04
2023-05-03T09:18:17.271Z,16.00
2023-05-03T09:20:52.035Z,15.99
2023-05-03T09:23:31.324Z,15.94
2023-05-03T09:26:01.138Z,16.26
2023-05-03T09:28:30.895Z,16.44
2023-05-03T09:31:06.931Z,16.41
2023-05-03T09:33:35.585Z,16.80
2023-05-03T09:36:06.448Z,17.05
2023-05-03T09:38:36.665Z,16.89
2023-05-03T09:41:06.939Z,16.92
2023-05-03T09:43:36.823Z,17.00
2023-05-03T09:46:12.952Z,17.03
2023-05-03T09:48:42.039Z,17.05
2023-05-03T09:51:12.331Z,17.06
2023-05-03T09:53:41.994Z,17.27
2023-05-03T09:56:13.371Z,17.41
2023-05-03T09:58:44.962Z,17.29
2023-05-03T10:01:16.243Z,17.22
2023-05-03T10:03:47.542Z,16.91
2023-05-03T10:06:24.278Z,16.86
2023-05-03T10:09:01.207Z,17.00
2023-05-03T10:11:30.266Z,17.52
2023-05-03T10:14:00.520Z,17.54
2023-05-03T10:16:34.589Z,17.32
2023-05-03T10:19:12.190Z,17.13
2023-05-03T10:22:03.774Z,17.14
2023-05-03T10:24:32.749Z,17.28
2023-05-03T10:27:01.887Z,18.08
2023-05-03T10:29:52.431Z,18.49
2023-05-03T10:32:35.617Z,18.85
2023-05-03T10:35:08.133Z,19.13
2023-05-03T10:37:38.040Z,19.51
2023-05-03T10:40:08.346Z,19.60
2023-05-03T10:42:38.449Z,19.87
2023-05-03T10:45:12.960Z,20.03
2023-05-03T10:47:41.893Z,20.08
2023-05-03T10:50:26.815Z,20.10
2023-05-03T10:52:55.727Z,20.21
2023-05-03T10:55:25.801Z,20.33
2023-05-03T10:57:57.737Z,20.38
2023-05-03T11:00:34.767Z,20.19
2023-05-03T11:03:22.057Z,20.16
2023-05-03T11:05:51.031Z,20.24
2023-05-03T11:08:21.542Z,20.36
2023-05-03T11:10:52.043Z,20.61
2023-05-03T11:13:20.440Z,20.58
2023-05-03T11:15:51.084Z,20.22
2023-05-03T11:18:20.125Z,20.41
2023-05-03T11:20:49.081Z,20.01
2023-05-03T11:23:18.169Z,19.79
2023-05-03T11:25:47.310Z,19.67
2023-05-03T11:28:15.836Z,19.63
2023-05-03T11:30:44.602Z,19.42
2023-05-03T11:33:14.540Z,19.14
2023-05-03T11:35:44.475Z,18.78
2023-05-03T11:38:13.363Z,18.57
2023-05-03T11:40:41.824Z,18.63
2023-05-03T11:43:10.578Z,18.67
2023-05-03T11:45:42.966Z,18.55
2023-05-03T11:48:14.593Z,18.51
2023-05-03T11:50:48.166Z,18.45
2023-05-03T11:53:17.554Z,18.41
2023-05-03T11:55:48.193Z,18.26
2023-05-03T11:58:18.643Z,18.34
2023-05-03T12:00:48.628Z,18.32
2023-05-03T12:03:26.806Z,18.33
2023-05-03T12:06:00.033Z,18.47
2023-05-03T12:08:31.087Z,18.69
2023-05-03T12:11:03.264Z,18.83
2023-05-03T12:13:38.301Z,18.99
2023-05-03T12:18:50.864Z,19.21
2023-05-03T12:23:55.854Z,20.12
2023-05-03T12:26:26.612Z,19.96
2023-05-03T12:28:57.118Z,19.89
2023-05-03T12:31:29.093Z,19.81
2023-05-03T12:34:20.044Z,19.65
2023-05-03T12:36:49.090Z,19.77
2023-05-03T12:39:21.593Z,19.83
2023-05-03T12:44:23.666Z,20.42
2023-05-03T12:46:53.475Z,20.49
2023-05-03T12:49:23.905Z,20.60
2023-05-03T12:52:11.329Z,21.26
2023-05-03T12:54:42.318Z,21.82
2023-05-03T12:57:15.510Z,22.20
2023-05-03T12:59:52.156Z,22.73
2023-05-03T13:04:59.464Z,23.80
2023-05-03T13:07:31.702Z,23.94
2023-05-03T13:12:36.305Z,24.14
2023-05-03T13:15:06.556Z,24.35
2023-05-03T13:17:35.308Z,24.00
2023-05-03T13:20:08.224Z,23.60
2023-05-03T13:22:36.598Z,23.07
2023-05-03T13:25:05.709Z,22.74
2023-05-03T13:27:34.888Z,22.49
2023-05-03T13:30:05.083Z,22.13
2023-05-03T13:35:03.217Z,21.70
2023-05-03T13:37:33.075Z,21.54
2023-05-03T13:40:02.116Z,21.28
2023-05-03T13:42:30.605Z,21.08
2023-05-03T13:44:59.709Z,20.93
2023-05-03T13:47:33.060Z,20.84
2023-05-03T13:50:11.862Z,20.75
2023-05-03T13:52:42.036Z,20.69
2023-05-03T13:55:12.227Z,20.63
2023-05-03T13:57:41.011Z,20.58
2023-05-03T14:00:10.535Z,20.57
2023-05-03T14:02:39.577Z,20.63
2023-05-03T14:05:08.666Z,21.38
2023-05-03T14:07:38.097Z,22.12
2023-05-03T14:10:10.044Z,22.74
2023-05-03T14:12:38.891Z,23.11
2023-05-03T14:15:08.868Z,23.81
2023-05-03T14:17:37.259Z,24.19
2023-05-03T14:20:08.359Z,24.55
2023-05-03T14:22:37.401Z,24.76
2023-05-03T14:25:06.607Z,24.26
2023-05-03T14:27:36.860Z,23.74
2023-05-03T14:30:06.423Z,23.18
2023-05-03T14:32:35.843Z,22.88
2023-05-03T14:35:04.360Z,22.48
2023-05-03T14:37:33.795Z,22.32
2023-05-03T14:40:02.428Z,22.11
2023-05-03T14:42:32.471Z,21.92
2023-05-03T14:45:03.188Z,22.33
2023-05-03T14:47:31.802Z,22.86
2023-05-03T14:50:00.193Z,23.26
2023-05-03T14:52:30.162Z,23.35
2023-05-03T14:54:58.549Z,23.24
2023-05-03T14:57:27.527Z,23.20
2023-05-03T14:59:56.289Z,23.38
2023-05-03T15:02:27.650Z,23.72
2023-05-03T15:04:56.085Z,23.99
2023-05-03T15:07:25.491Z,24.08
2023-05-03T15:09:54.255Z,24.29
2023-05-03T15:12:23.063Z,24.32
2023-05-03T15:14:51.534Z,23.79
2023-05-03T15:17:20.065Z,23.16
2023-05-03T15:19:50.937Z,22.62
2023-05-03T15:22:19.518Z,22.29
2023-05-03T15:24:48.370Z,22.12
2023-05-03T15:27:18.090Z,22.57
2023-05-03T15:29:46.623Z,22.95
2023-05-03T15:32:15.960Z,23.28
2023-05-03T15:34:44.303Z,23.30
2023-05-03T15:37:14.521Z,23.60
2023-05-03T15:39:42.936Z,23.67
2023-05-03T15:42:11.301Z,23.79
2023-05-03T15:44:39.673Z,24.08
2023-05-03T15:47:08.816Z,24.23
2023-05-03T15:49:37.304Z,23.95
2023-05-03T15:52:08.892Z,24.04
2023-05-03T15:54:39.008Z,24.09
2023-05-03T15:57:07.890Z,24.19
2023-05-03T15:59:36.824Z,23.97
2023-05-03T16:02:05.875Z,23.53
2023-05-03T16:04:37.521Z,23.25
2023-05-03T16:07:06.451Z,23.28
2023-05-03T16:09:35.513Z,23.10
2023-05-03T16:12:05.693Z,23.05
2023-05-03T16:14:34.704Z,23.23
2023-05-03T16:17:03.264Z,23.13
2023-05-03T16:19:32.060Z,23.01
2023-05-03T16:22:00.746Z,23.04
2023-05-03T16:24:29.396Z,23.05
2023-05-03T16:26:58.116Z,23.06
2023-05-03T16:29:29.804Z,23.10
2023-05-03T16:31:59.112Z,23.11
2023-05-03T16:34:27.840Z,23.09
2023-05-03T16:36:56.204Z,23.02
2023-05-03T16:39:25.286Z,23.08
2023-05-03T16:41:53.713Z,23.05
2023-05-03T16:44:22.095Z,22.98
2023-05-03T16:46:53.589Z,22.91
2023-05-03T16:49:22.622Z,22.84
2023-05-03T16:51:51.034Z,22.83
2023-05-03T16:54:21.503Z,22.76
2023-05-03T16:56:50.076Z,22.70
2023-05-03T16:59:20.129Z,22.66
2023-05-03T17:01:48.545Z,22.63
2023-05-03T17:04:18.490Z,22.56
2023-05-03T17:06:47.248Z,22.42
2023-05-03T17:09:15.617Z,22.39
2023-05-03T17:11:43.950Z,22.32
2023-05-03T17:14:12.629Z,22.23
2023-05-03T17:16:41.907Z,22.01
2023-05-03T17:19:10.621Z,21.74
2023-05-03T17:21:41.686Z,21.63
2023-05-03T17:24:10.890Z,21.59
2023-05-03T17:26:40.650Z,21.50
2023-05-03T17:29:09.028Z,21.31
2023-05-03T17:31:38.296Z,21.16
2023-05-03T17:34:06.884Z,21.11
2023-05-03T17:36:36.189Z,21.05
2023-05-03T17:39:06.029Z,20.86
2023-05-03T17:41:37.488Z,20.62
2023-05-03T17:44:05.996Z,20.59
2023-05-03T17:46:35.565Z,20.49
2023-05-03T17:49:04.634Z,20.37
2023-05-03T17:51:33.138Z,20.21
2023-05-03T17:54:03.069Z,20.26
2023-05-03T17:56:32.857Z,20.10
2023-05-03T17:59:02.366Z,20.06
2023-05-03T18:01:30.761Z,19.87
2023-05-03T18:04:01.005Z,19.66
2023-05-03T18:06:29.951Z,19.66
2023-05-03T18:08:58.971Z,19.40
2023-05-03T18:11:27.397Z,19.26
2023-05-03T18:14:16.801Z,19.04
2023-05-03T18:16:45.560Z,19.02
2023-05-03T18:19:14.748Z,18.84
2023-05-03T18:21:43.132Z,18.82
2023-05-03T18:24:16.058Z,18.69
2023-05-03T18:26:44.517Z,18.70
2023-05-03T18:29:12.869Z,18.53
2023-05-03T18:31:44.716Z,18.41
2023-05-03T18:34:13.303Z,18.34
2023-05-03T18:36:42.217Z,18.32
2023-05-03T18:39:10.965Z,18.15
2023-05-03T18:41:41.140Z,18.08
2023-05-03T18:44:09.888Z,17.96
2023-05-03T18:46:40.178Z,17.85
2023-05-03T18:49:11.961Z,17.78
2023-05-03T18:51:40.429Z,17.78
2023-05-03T18:54:13.028Z,17.76
2023-05-03T18:56:41.831Z,17.67
2023-05-03T18:59:11.125Z,17.55
2023-05-03T19:01:39.927Z,17.39
2023-05-03T19:04:08.347Z,17.12
2023-05-03T19:06:38.137Z,17.19
2023-05-03T19:09:06.834Z,17.05
2023-05-03T19:11:36.000Z,17.03
2023-05-03T19:14:05.084Z,17.06
2023-05-03T19:16:34.178Z,16.95
2023-05-03T19:19:02.790Z,16.94
2023-05-03T19:21:32.141Z,16.94
2023-05-03T19:24:02.593Z,16.93
2023-05-03T19:26:31.506Z,16.80
2023-05-03T19:29:00.054Z,16.68
2023-05-03T19:31:28.889Z,16.62
2023-05-03T19:33:57.325Z,16.42
2023-05-03T19:36:25.782Z,16.38
2023-05-03T19:38:54.625Z,16.34
2023-05-03T19:41:25.234Z,16.23
2023-05-03T19:43:55.651Z,16.19
2023-05-03T19:46:24.523Z,16.18
2023-05-03T19:48:53.489Z,16.12
2023-05-03T19:51:22.140Z,15.92
2023-05-03T19:53:51.638Z,15.88
2023-05-03T19:56:21.704Z,15.83
2023-05-03T19:58:51.895Z,15.87
2023-05-03T20:01:20.453Z,15.84
2023-05-03T20:03:49.009Z,15.71
2023-05-03T20:06:17.460Z,15.85
2023-05-03T20:08:45.848Z,15.76
2023-05-03T20:11:14.678Z,15.65
2023-05-03T20:13:43.166Z,15.59
2023-05-03T20:16:13.175Z,15.59
2023-05-03T20:18:42.772Z,15.51
2023-05-03T20:21:11.103Z,15.45
2023-05-03T20:23:39.563Z,15.47
2023-05-03T20:26:08.022Z,15.47
2023-05-03T20:28:36.542Z,15.38
2023-05-03T20:31:05.554Z,15.42
2023-05-03T20:33:35.284Z,15.38
2023-05-03T20:36:03.904Z,15.27
2023-05-03T20:38:32.782Z,15.21
2023-05-03T20:41:01.174Z,15.12
2023-05-03T20:43:30.060Z,15.02
2023-05-03T20:45:59.130Z,14.88
2023-05-03T20:48:27.794Z,14.88
2023-05-03T20:50:58.865Z,14.79
2023-05-03T20:53:27.328Z,14.74
2023-05-03T20:56:00.907Z,14.76
2023-05-03T20:58:29.353Z,14.80
2023-05-03T21:00:58.079Z,14.76
2023-05-03T21:03:26.800Z,14.72
2023-05-03T21:05:56.446Z,14.65
2023-05-03T21:08:26.378Z,14.43
2023-05-03T21:10:55.420Z,14.43
2023-05-03T21:13:23.772Z,14.35
2023-05-03T21:15:52.581Z,14.27
2023-05-03T21:18:20.969Z,14.21
2023-05-03T21:20:49.364Z,14.25
2023-05-03T21:23:17.723Z,14.20
2023-05-03T21:25:48.220Z,14.15
2023-05-03T21:28:16.779Z,14.10
2023-05-03T21:30:48.338Z,13.88
2023-05-03T21:33:16.952Z,13.89
2023-05-03T21:35:45.334Z,13.98
2023-05-03T21:38:15.331Z,13.92
2023-05-03T21:40:44.209Z,13.99
2023-05-03T21:43:13.957Z,13.93
2023-05-03T21:45:44.126Z,13.93
2023-05-03T21:48:12.698Z,13.91
2023-05-03T21:50:41.304Z,13.88
2023-05-03T21:53:10.159Z,13.83
2023-05-03T21:55:39.256Z,13.82
2023-05-03T21:58:08.092Z,13.80
2023-05-03T22:00:39.923Z,13.73
2023-05-03T22:03:08.898Z,13.63
2023-05-03T22:05:39.291Z,13.55
2023-05-03T22:08:08.058Z,13.62
2023-05-03T22:10:38.353Z,13.61
2023-05-03T22:13:06.755Z,13.60
2023-05-03T22:15:37.373Z,13.50
2023-05-03T22:18:05.942Z,13.39
2023-05-03T22:20:34.315Z,13.38
2023-05-03T22:23:04.575Z,13.35
2023-05-03T22:25:33.184Z,13.37
2023-05-03T22:28:02.112Z,13.34
2023-05-03T22:30:31.418Z,13.32
2023-05-03T22:33:02.629Z,13.28
2023-05-03T22:35:31.576Z,13.31
2023-05-03T22:38:00.699Z,13.24
2023-05-03T22:40:29.021Z,13.22
2023-05-03T22:42:58.572Z,13.17
2023-05-03T22:45:27.001Z,13.17
2023-05-03T22:47:56.092Z,13.11
2023-05-03T22:50:26.130Z,13.11
2023-05-03T22:52:55.852Z,13.07
2023-05-03T22:55:24.579Z,13.05
2023-05-03T22:57:53.405Z,13.05
2023-05-03T23:00:22.395Z,13.02
2023-05-03T23:02:51.885Z,12.98
2023-05-03T23:05:20.657Z,12.90
2023-05-03T23:07:51.153Z,12.94
2023-05-03T23:10:19.505Z,12.94
2023-05-03T23:12:48.765Z,12.89
2023-05-03T23:15:18.022Z,12.89
2023-05-03T23:17:46.519Z,12.85
2023-05-03T23:20:16.043Z,12.83
2023-05-03T23:22:44.514Z,12.68
2023-05-03T23:25:16.809Z,12.77
2023-05-03T23:27:45.211Z,12.77
2023-05-03T23:30:15.597Z,12.75
2023-05-03T23:32:44.965Z,12.70
2023-05-03T23:35:15.038Z,12.64
2023-05-03T23:37:44.198Z,12.62
2023-05-03T23:40:14.239Z,12.62
2023-05-03T23:42:43.859Z,12.62
2023-05-03T23:45:12.783Z,12.60
2023-05-03T23:47:42.005Z,12.59
2023-05-03T23:50:11.308Z,12.54
2023-05-03T23:52:40.219Z,12.49
2023-05-03T23:55:09.780Z,12.40
2023-05-03T23:57:39.511Z,12.35
